Time;durP1;ratioP1;P1;durP2;ratioP2;P2;SDS_P1;SDS_P2;PMS_P1;PMS_P2;Temp;Humidity;BMP_temperature;BMP_pressure;BME280_temperature;BME280_humidity;BME280_pressure;Samples;Min_cycle;Max_cycle;Signal;HPM_P1;HPM_P2
2024/03/24 00:00:35;;;;;;;;;;;;;;;-1.06;66.66;94556.72;4943262;28;19926;-74
2024/03/24 00:03:01;;;;;;;;;;;;;;;-1.02;64.56;94565.13;4942463;28;20463;-74
2024/03/24 00:05:27;;;;;;;;;;;;;;;-1.92;68.24;94561.22;4942312;28;19927;-72
2024/03/24 00:07:52;;;;;;;;;;;;;;;-1.48;67.70;94565.47;4942275;28;19974;-73
2024/03/24 00:10:17;;;;;;;;;;;;;;;-1.74;68.31;94558.00;4942819;28;19929;-73
2024/03/24 00:12:43;;;;;;;;;;;;;;;-1.50;66.32;94549.91;4942443;28;19930;-72
2024/03/24 00:15:08;;;;;;;;;;;;;;;-1.55;68.31;94546.88;4943014;28;19927;-73
2024/03/24 00:17:34;;;;;;;;;;;;;;;-0.99;67.34;94547.41;4942430;28;19933;-72
2024/03/24 00:19:59;;;;;;;;;;;;;;;-1.01;63.60;94546.72;4942378;29;19950;-74
2024/03/24 00:22:24;;;;;;;;;;;;;;;-1.19;65.22;94535.22;4941660;28;19933;-72
2024/03/24 00:24:49;;;;;;;;;;;;;;;-1.33;66.94;94534.59;4941519;29;20347;-74
2024/03/24 00:27:15;;;;;;;;;;;;;;;-1.32;66.67;94531.06;4941728;28;20037;-73
2024/03/24 00:29:40;;;;;;;;;;;;;;;-2.04;68.94;94529.13;4942136;28;19938;-73
2024/03/24 00:32:06;;;;;;;;;;;;;;;-2.08;67.51;94527.72;4940905;28;20140;-72
2024/03/24 00:34:31;;;;;;;;;;;;;;;-1.52;67.38;94523.09;4941640;28;20416;-74
2024/03/24 00:36:56;;;;;;;;;;;;;;;-1.19;65.83;94515.13;4942019;28;20428;-74
2024/03/24 00:39:21;;;;;;;;;;;;;;;-2.10;67.17;94516.59;4941819;28;20291;-74
2024/03/24 00:41:46;;;;;;;;;;;;;;;-0.99;65.95;94510.81;4941325;28;20437;-72
2024/03/24 00:44:12;;;;;;;;;;;;;;;-1.74;65.41;94501.44;4941145;28;20026;-74
2024/03/24 00:46:37;;;;;;;;;;;;;;;-1.57;66.83;94496.56;4940687;28;20001;-74
2024/03/24 00:49:03;;;;;;;;;;;;;;;-1.79;64.22;94501.00;4938254;29;19926;-72
2024/03/24 00:51:29;;;;;;;;;;;;;;;-2.34;66.63;94501.16;4941935;28;20127;-72
2024/03/24 00:53:54;;;;;;;;;;;;;;;-0.99;66.88;94502.13;4939867;28;19926;-73
2024/03/24 00:56:19;;;;;;;;;;;;;;;-0.95;64.81;94496.56;4940921;28;19918;-72
2024/03/24 00:58:44;;;;;;;;;;;;;;;-1.77;65.92;94495.63;4941015;28;19982;-73
2024/03/24 01:01:10;;;;;;;;;;;;;;;-2.57;66.32;94502.09;4935040;29;20606;-73
2024/03/24 01:03:35;;;;;;;;;;;;;;;-1.62;67.70;94490.91;4941359;28;20599;-75
2024/03/24 01:06:00;;;;;;;;;;;;;;;-2.51;67.47;94488.53;4938869;28;19933;-73
2024/03/24 01:08:25;;;;;;;;;;;;;;;-2.03;67.85;94488.22;4941441;29;20030;-74
2024/03/24 01:10:51;;;;;;;;;;;;;;;-1.70;66.65;94485.53;4940703;28;20115;-74
2024/03/24 01:13:16;;;;;;;;;;;;;;;-1.52;67.21;94472.69;4939666;28;19969;-72
2024/03/24 01:15:44;;;;;;;;;;;;;;;-1.22;65.67;94473.63;4940450;28;19934;-73
2024/03/24 01:18:10;;;;;;;;;;;;;;;-1.16;64.36;94469.66;4938853;28;20039;-74
2024/03/24 01:20:35;;;;;;;;;;;;;;;-2.31;67.57;94473.06;4939711;28;20424;-74
2024/03/24 01:23:00;;;;;;;;;;;;;;;-2.21;69.09;94459.28;4939281;28;19937;-72
2024/03/24 01:25:25;;;;;;;;;;;;;;;-2.37;67.54;94457.94;4938530;28;19969;-74
2024/03/24 01:27:51;;;;;;;;;;;;;;;-1.89;67.52;94458.38;4940147;29;19984;-73
2024/03/24 01:30:16;;;;;;;;;;;;;;;-2.25;69.45;94466.50;4939498;28;20442;-73
2024/03/24 01:32:41;;;;;;;;;;;;;;;-2.30;69.55;94456.47;4938496;29;19918;-74
2024/03/24 01:35:07;;;;;;;;;;;;;;;-2.45;69.58;94460.34;4939460;28;19926;-75
2024/03/24 01:37:32;;;;;;;;;;;;;;;-2.57;70.90;94457.78;4938893;28;20069;-73
2024/03/24 01:39:57;;;;;;;;;;;;;;;-2.95;70.31;94459.09;4939550;29;19922;-74
2024/03/24 01:42:22;;;;;;;;;;;;;;;-3.34;72.59;94452.53;4937515;28;20283;-73
2024/03/24 01:44:48;;;;;;;;;;;;;;;-2.93;71.25;94451.97;4939829;28;19939;-73
2024/03/24 01:47:13;;;;;;;;;;;;;;;-2.59;71.05;94437.97;4938978;28;20073;-75
2024/03/24 01:49:39;;;;;;;;;;;;;;;-2.58;69.59;94443.06;4940396;28;19933;-74
2024/03/24 01:52:07;;;;;;;;;;;;;;;-2.67;71.27;94441.22;4938049;28;19930;-74
2024/03/24 01:54:34;;;;;;;;;;;;;;;-2.65;70.86;94434.13;4939774;28;19988;-73
2024/03/24 01:56:59;;;;;;;;;;;;;;;-2.18;68.79;94431.16;4940637;28;19961;-75
2024/03/24 01:59:24;;;;;;;;;;;;;;;-2.37;69.92;94424.03;4936725;28;19933;-74
2024/03/24 02:01:50;;;;;;;;;;;;;;;-2.72;70.34;94427.75;4940000;28;19930;-74
2024/03/24 02:04:15;;;;;;;;;;;;;;;-2.51;70.49;94422.56;4940680;29;19926;-75
2024/03/24 02:06:41;;;;;;;;;;;;;;;-3.35;74.65;94426.63;4938939;28;19926;-74
2024/03/24 02:09:06;;;;;;;;;;;;;;;-2.43;71.55;94421.94;4954493;28;19978;-73
2024/03/24 02:11:31;;;;;;;;;;;;;;;-2.55;72.02;94413.34;4939832;28;20033;-74
2024/03/24 02:13:59;;;;;;;;;;;;;;;-2.40;70.83;94412.09;4939599;28;19962;-74
2024/03/24 02:16:25;;;;;;;;;;;;;;;-2.80;73.28;94421.38;4940343;29;20436;-74
2024/03/24 02:18:50;;;;;;;;;;;;;;;-2.72;71.69;94406.91;4938255;29;19968;-74
2024/03/24 02:21:15;;;;;;;;;;;;;;;-2.55;70.82;94418.56;4939291;29;19923;-74
2024/03/24 02:23:41;;;;;;;;;;;;;;;-2.48;70.31;94417.09;4939103;28;20376;-74
2024/03/24 02:26:06;;;;;;;;;;;;;;;-3.03;71.18;94407.59;4940056;28;20210;-75
2024/03/24 02:28:31;;;;;;;;;;;;;;;-2.53;71.33;94411.44;4940210;29;20018;-75
2024/03/24 02:30:56;;;;;;;;;;;;;;;-2.66;71.43;94404.63;4939620;28;19930;-73
2024/03/24 02:33:21;;;;;;;;;;;;;;;-3.01;72.31;94403.09;4939558;28;20425;-74
2024/03/24 02:35:48;;;;;;;;;;;;;;;-2.29;71.15;94402.53;4941446;28;19985;-75
2024/03/24 02:38:14;;;;;;;;;;;;;;;-2.38;70.54;94396.28;4940720;28;19930;-75
2024/03/24 02:40:39;;;;;;;;;;;;;;;-2.15;70.21;94393.53;4943329;29;19922;-77
2024/03/24 02:43:04;;;;;;;;;;;;;;;-2.24;68.80;94395.16;4940362;28;19926;-76
2024/03/24 02:45:30;;;;;;;;;;;;;;;-2.28;71.03;94396.34;4943256;28;19965;-79
2024/03/24 02:47:55;;;;;;;;;;;;;;;-2.04;68.20;94403.91;4942324;28;19930;-78
2024/03/24 02:50:20;;;;;;;;;;;;;;;-2.36;70.42;94397.00;4943131;28;19990;-79
2024/03/24 02:52:45;;;;;;;;;;;;;;;-2.36;69.34;94391.78;4943654;28;20440;-78
2024/03/24 02:55:11;;;;;;;;;;;;;;;-2.37;69.34;94390.16;4943250;28;19926;-77
2024/03/24 02:57:36;;;;;;;;;;;;;;;-2.66;71.68;94390.75;4943011;28;19934;-77
2024/03/24 03:00:03;;;;;;;;;;;;;;;-2.67;71.22;94391.72;4956168;28;20392;-77
2024/03/24 03:02:28;;;;;;;;;;;;;;;-2.30;70.06;94386.06;4941641;28;19952;-77
2024/03/24 03:04:53;;;;;;;;;;;;;;;-2.44;69.27;94383.78;4943102;29;20660;-78
2024/03/24 03:07:19;;;;;;;;;;;;;;;-2.48;70.74;94387.59;4941244;28;20022;-78
2024/03/24 03:09:44;;;;;;;;;;;;;;;-2.40;70.85;94375.59;4957649;28;19962;-80
2024/03/24 03:12:09;;;;;;;;;;;;;;;-2.13;67.64;94384.63;4958603;28;19937;-79
2024/03/24 03:14:34;;;;;;;;;;;;;;;-2.16;69.83;94390.13;4944881;28;20407;-77
2024/03/24 03:17:00;;;;;;;;;;;;;;;-2.08;69.03;94376.44;4959200;28;20040;-78
2024/03/24 03:19:25;;;;;;;;;;;;;;;-1.63;67.71;94382.25;4943013;28;20034;-76
2024/03/24 03:21:50;;;;;;;;;;;;;;;-2.24;67.84;94369.09;4941477;28;20599;-78
2024/03/24 03:24:17;;;;;;;;;;;;;;;-2.09;68.83;94366.13;4942937;28;20044;-76
2024/03/24 03:26:42;;;;;;;;;;;;;;;-2.12;68.46;94362.00;4941834;28;20289;-79
2024/03/24 03:29:07;;;;;;;;;;;;;;;-2.16;68.34;94360.59;4943033;29;19933;-77
2024/03/24 03:31:33;;;;;;;;;;;;;;;-2.24;69.59;94372.50;4941704;28;20769;-77
2024/03/24 03:33:58;;;;;;;;;;;;;;;-2.88;71.10;94356.88;4942448;28;20445;-77
2024/03/24 03:36:23;;;;;;;;;;;;;;;-3.05;71.83;94355.63;4942344;28;19977;-78
2024/03/24 03:38:48;;;;;;;;;;;;;;;-2.72;71.45;94354.81;4942128;28;19927;-75
2024/03/24 03:41:14;;;;;;;;;;;;;;;-2.91;73.14;94346.72;4942155;29;19922;-77
2024/03/24 03:43:39;;;;;;;;;;;;;;;-3.03;73.21;94355.50;4956717;28;19933;-77
2024/03/24 03:46:04;;;;;;;;;;;;;;;-3.40;75.11;94346.28;4942277;28;19926;-76
2024/03/24 03:48:29;;;;;;;;;;;;;;;-3.35;73.52;94336.34;4923606;29;19926;-78
2024/03/24 03:50:54;;;;;;;;;;;;;;;-3.31;75.28;94336.91;4941739;28;19932;-77
2024/03/24 03:53:25;;;;;;;;;;;;;;;-2.92;73.19;94331.22;4941098;28;20061;-77
2024/03/24 03:55:51;;;;;;;;;;;;;;;-2.75;72.04;94341.06;4942548;28;19927;-77
2024/03/24 03:58:19;;;;;;;;;;;;;;;-2.88;73.86;94333.41;4939194;28;19968;-80
2024/03/24 04:00:45;;;;;;;;;;;;;;;-2.93;72.98;94332.13;4939479;29;19981;-76
2024/03/24 04:03:10;;;;;;;;;;;;;;;-2.83;72.59;94333.03;4923685;29;19933;-78
2024/03/24 04:05:38;;;;;;;;;;;;;;;-2.43;71.73;94328.91;4941937;28;19930;-78
2024/03/24 04:08:04;;;;;;;;;;;;;;;-2.63;72.00;94322.75;4941663;29;19922;-76
2024/03/24 04:10:29;;;;;;;;;;;;;;;-2.08;69.22;94320.84;4940889;28;20525;-79
2024/03/24 04:12:55;;;;;;;;;;;;;;;-2.12;69.23;94309.81;4941954;29;19969;-80
2024/03/24 04:15:20;;;;;;;;;;;;;;;-1.81;69.06;94316.78;4939668;29;20047;-79
2024/03/24 04:17:46;;;;;;;;;;;;;;;-2.19;69.84;94309.53;4943774;28;19926;-77
2024/03/24 04:20:11;;;;;;;;;;;;;;;-1.93;69.42;94313.47;4941539;29;20202;-80
2024/03/24 04:22:36;;;;;;;;;;;;;;;-2.11;68.76;94312.31;4939616;29;20013;-80
2024/03/24 04:25:01;;;;;;;;;;;;;;;-2.00;69.47;94298.34;4941568;29;20083;-74
2024/03/24 04:27:27;;;;;;;;;;;;;;;-1.89;68.12;94304.41;4941444;28;20352;-79
2024/03/24 04:29:52;;;;;;;;;;;;;;;-2.20;68.30;94299.22;4941711;28;19927;-79
2024/03/24 04:32:17;;;;;;;;;;;;;;;-2.04;69.11;94299.56;4941437;28;20394;-77
2024/03/24 04:34:42;;;;;;;;;;;;;;;-2.60;68.49;94306.88;4940853;28;19985;-77
2024/03/24 04:37:08;;;;;;;;;;;;;;;-1.91;69.71;94290.66;4942190;28;20082;-78
2024/03/24 04:39:33;;;;;;;;;;;;;;;-2.24;69.74;94285.66;4942034;28;19947;-76
2024/03/24 04:41:59;;;;;;;;;;;;;;;-1.49;68.21;94274.81;4941368;28;20164;-77
2024/03/24 04:44:25;;;;;;;;;;;;;;;-1.35;67.51;94278.00;4941012;28;20059;-76
2024/03/24 04:46:50;;;;;;;;;;;;;;;-1.28;66.47;94276.50;4941199;28;20400;-77
2024/03/24 04:49:16;;;;;;;;;;;;;;;-1.40;65.85;94267.97;4941611;29;19922;-78
2024/03/24 04:51:41;;;;;;;;;;;;;;;-1.58;68.21;94259.97;4955755;28;20033;-77
2024/03/24 04:54:06;;;;;;;;;;;;;;;-1.25;66.39;94276.19;4955356;28;19926;-77
2024/03/24 04:56:32;;;;;;;;;;;;;;;-2.50;70.95;94279.09;4924281;29;19929;-72
2024/03/24 04:58:57;;;;;;;;;;;;;;;-2.50;72.25;94271.25;4940685;28;20608;-76
2024/03/24 05:01:22;;;;;;;;;;;;;;;-2.15;71.65;94270.97;4952708;28;19964;-76
2024/03/24 05:03:48;;;;;;;;;;;;;;;-2.06;71.52;94278.00;4940620;28;19941;-72
2024/03/24 05:06:13;;;;;;;;;;;;;;;-2.66;72.50;94276.94;4941124;28;20547;-73
2024/03/24 05:08:38;;;;;;;;;;;;;;;-2.42;72.68;94274.97;4941024;29;20044;-75
2024/03/24 05:11:05;;;;;;;;;;;;;;;-2.37;71.32;94283.25;4940822;28;20545;-73
2024/03/24 05:13:31;;;;;;;;;;;;;;;-2.31;70.37;94268.88;4939360;28;19928;-77
2024/03/24 05:15:57;;;;;;;;;;;;;;;-2.68;71.68;94275.41;4940886;28;19919;-75
2024/03/24 05:18:22;;;;;;;;;;;;;;;-2.30;71.58;94270.50;4940572;28;19942;-73
2024/03/24 05:20:47;;;;;;;;;;;;;;;-2.25;72.78;94278.75;4939354;29;19930;-73
2024/03/24 05:23:18;;;;;;;;;;;;;;;-2.19;73.02;94272.19;4939796;28;20025;-73
2024/03/24 05:25:53;;;;;;;;;;;;;;;-2.43;71.65;94279.38;4937967;28;20418;-73
2024/03/24 05:28:18;;;;;;;;;;;;;;;-3.83;78.80;94286.31;4940167;29;20032;-75
2024/03/24 05:30:43;;;;;;;;;;;;;;;-2.80;78.43;94272.03;4940781;28;20028;-75
2024/03/24 05:33:09;;;;;;;;;;;;;;;-2.67;76.09;94284.88;4952837;28;19930;-74
2024/03/24 05:35:34;;;;;;;;;;;;;;;-2.58;73.83;94267.66;4940216;28;20350;-74
2024/03/24 05:37:59;;;;;;;;;;;;;;;-2.88;74.17;94265.69;4940371;28;19922;-75
2024/03/24 05:40:24;;;;;;;;;;;;;;;-2.82;73.42;94269.56;4940363;28;19963;-74
2024/03/24 05:42:53;;;;;;;;;;;;;;;-2.85;71.38;94267.22;4938583;29;20392;-75
2024/03/24 05:45:19;;;;;;;;;;;;;;;-2.13;71.15;94269.88;4940319;28;19926;-74
2024/03/24 05:47:44;;;;;;;;;;;;;;;-2.31;71.25;94256.63;4939832;28;20460;-74
2024/03/24 05:50:09;;;;;;;;;;;;;;;-2.07;70.63;94260.69;4952944;28;19930;-76
2024/03/24 05:52:37;;;;;;;;;;;;;;;-3.04;72.23;94260.09;4937310;29;19932;-74
2024/03/24 05:55:06;;;;;;;;;;;;;;;-2.53;71.13;94258.47;4940040;28;19926;-75
2024/03/24 05:57:31;;;;;;;;;;;;;;;-2.80;73.25;94270.28;4938950;28;19953;-74
2024/03/24 05:59:56;;;;;;;;;;;;;;;-3.23;76.05;94258.22;4938780;29;19944;-74
2024/03/24 06:02:22;;;;;;;;;;;;;;;-3.18;75.79;94258.66;4954593;28;20294;-75
2024/03/24 06:04:47;;;;;;;;;;;;;;;-3.59;77.34;94259.31;4939787;29;19930;-74
2024/03/24 06:07:12;;;;;;;;;;;;;;;-3.45;80.11;94278.16;4939932;28;19930;-74
2024/03/24 06:09:38;;;;;;;;;;;;;;;-4.21;86.12;94267.56;4939197;28;19997;-74
2024/03/24 06:12:04;;;;;;;;;;;;;;;-3.95;83.40;94263.88;4943087;28;19922;-76
2024/03/24 06:14:29;;;;;;;;;;;;;;;-4.11;85.30;94270.28;4942781;28;19926;-76
2024/03/24 06:16:54;;;;;;;;;;;;;;;-3.95;87.05;94271.66;4943204;28;19923;-73
2024/03/24 06:19:19;;;;;;;;;;;;;;;-3.73;83.92;94268.22;4943302;28;19930;-74
2024/03/24 06:21:45;;;;;;;;;;;;;;;-3.68;83.35;94270.44;4944836;28;19926;-74
2024/03/24 06:24:10;;;;;;;;;;;;;;;-4.13;84.65;94267.00;4942925;28;19962;-75
2024/03/24 06:26:35;;;;;;;;;;;;;;;-3.55;84.22;94278.91;4942807;28;20919;-72
2024/03/24 06:29:00;;;;;;;;;;;;;;;-3.73;82.04;94277.78;4944169;28;20680;-74
2024/03/24 06:31:26;;;;;;;;;;;;;;;-3.72;82.14;94276.81;4943191;28;19927;-74
2024/03/24 06:33:52;;;;;;;;;;;;;;;-3.64;81.78;94277.03;4943031;28;19930;-74
2024/03/24 06:36:17;;;;;;;;;;;;;;;-4.60;81.54;94274.91;4941694;28;19965;-74
2024/03/24 06:38:42;;;;;;;;;;;;;;;-3.73;80.62;94272.59;4942985;28;19965;-75
2024/03/24 06:41:07;;;;;;;;;;;;;;;-3.95;80.29;94269.06;4946454;28;19926;-73
2024/03/24 06:43:42;;;;;;;;;;;;;;;-4.25;82.14;94268.75;4941479;29;19989;-74
2024/03/24 06:46:10;;;;;;;;;;;;;;;-3.92;80.76;94268.84;4943423;28;19926;-72
2024/03/24 06:48:36;;;;;;;;;;;;;;;-4.28;81.37;94286.38;4943253;28;20422;-72
2024/03/24 06:51:02;;;;;;;;;;;;;;;-4.59;83.03;94286.94;4942333;28;20078;-72
2024/03/24 06:53:27;;;;;;;;;;;;;;;-4.60;82.58;94273.16;4941850;28;19968;-73
2024/03/24 06:55:52;;;;;;;;;;;;;;;-4.74;85.33;94271.59;4942478;28;20021;-73
2024/03/24 06:58:17;;;;;;;;;;;;;;;-4.25;83.30;94281.75;4942175;28;20000;-72
2024/03/24 07:00:44;;;;;;;;;;;;;;;-3.83;82.66;94257.72;4941139;28;19997;-74
2024/03/24 07:03:09;;;;;;;;;;;;;;;-3.71;80.47;94268.06;4941800;28;20028;-73
2024/03/24 07:05:34;;;;;;;;;;;;;;;-4.08;81.76;94277.03;4941802;28;19931;-73
2024/03/24 07:08:00;;;;;;;;;;;;;;;-3.94;81.40;94281.16;4942395;28;19973;-72
2024/03/24 07:10:25;;;;;;;;;;;;;;;-3.74;81.10;94271.75;4942817;28;20009;-74
2024/03/24 07:12:50;;;;;;;;;;;;;;;-3.88;81.76;94285.03;4942927;28;19922;-72
2024/03/24 07:15:15;;;;;;;;;;;;;;;-4.09;81.59;94277.97;4942654;28;19960;-74
2024/03/24 07:17:40;;;;;;;;;;;;;;;-4.21;81.87;94274.56;4942739;28;19930;-73
2024/03/24 07:20:07;;;;;;;;;;;;;;;-4.22;80.83;94281.53;4942693;29;19961;-72
2024/03/24 07:22:32;;;;;;;;;;;;;;;-3.79;81.14;94282.53;4942378;28;19930;-72
2024/03/24 07:24:58;;;;;;;;;;;;;;;-3.61;80.79;94286.38;4941847;29;19930;-73
2024/03/24 07:27:23;;;;;;;;;;;;;;;-3.84;80.58;94279.44;4942248;28;20009;-73
2024/03/24 07:29:48;;;;;;;;;;;;;;;-3.67;81.96;94274.72;4942159;28;19926;-73
2024/03/24 07:32:14;;;;;;;;;;;;;;;-3.73;79.79;94283.81;4942710;28;19929;-74
2024/03/24 07:34:40;;;;;;;;;;;;;;;-4.33;81.08;94269.38;4941727;28;20009;-74
2024/03/24 07:37:05;;;;;;;;;;;;;;;-3.20;80.99;94286.56;4942766;28;20335;-74
2024/03/24 07:39:30;;;;;;;;;;;;;;;-3.53;80.19;94277.00;4941190;28;19933;-74
2024/03/24 07:41:55;;;;;;;;;;;;;;;-3.54;80.78;94271.91;4940065;29;20016;-74
2024/03/24 07:44:21;;;;;;;;;;;;;;;-3.58;80.51;94292.16;4942429;28;19930;-74
2024/03/24 07:46:46;;;;;;;;;;;;;;;-3.49;80.10;94289.78;4941783;28;19937;-74
2024/03/24 07:49:12;;;;;;;;;;;;;;;-3.66;79.70;94292.78;4942238;28;19925;-74
2024/03/24 07:51:37;;;;;;;;;;;;;;;-3.89;79.64;94294.59;4941486;28;19933;-75
2024/03/24 07:54:03;;;;;;;;;;;;;;;-3.70;81.39;94293.16;4941879;28;20357;-74
2024/03/24 07:56:28;;;;;;;;;;;;;;;-3.06;78.63;94291.47;4942246;28;19929;-74
2024/03/24 07:58:53;;;;;;;;;;;;;;;-3.31;81.15;94292.66;4942058;28;19927;-74
2024/03/24 08:01:18;;;;;;;;;;;;;;;-3.24;80.65;94304.22;4941991;29;19977;-74
2024/03/24 08:03:44;;;;;;;;;;;;;;;-2.92;77.94;94297.34;4941336;28;19985;-74
2024/03/24 08:06:09;;;;;;;;;;;;;;;-3.09;80.55;94301.34;4941752;28;19931;-74
2024/03/24 08:08:34;;;;;;;;;;;;;;;-2.80;79.29;94298.94;4940891;29;20017;-73
2024/03/24 08:10:59;;;;;;;;;;;;;;;-2.33;77.96;94297.69;4941672;28;19977;-73
2024/03/24 08:13:25;;;;;;;;;;;;;;;-2.22;76.84;94293.31;4940282;28;20399;-73
2024/03/24 08:15:50;;;;;;;;;;;;;;;-2.38;78.51;94284.19;4941674;28;20411;-73
2024/03/24 08:18:15;;;;;;;;;;;;;;;-2.57;75.93;94298.78;4939921;28;19927;-73
2024/03/24 08:20:44;;;;;;;;;;;;;;;-1.93;76.18;94288.19;4941750;28;19957;-73
2024/03/24 08:23:09;;;;;;;;;;;;;;;-2.11;75.96;94291.44;4941016;28;20121;-72
2024/03/24 08:25:34;;;;;;;;;;;;;;;-2.39;74.79;94287.75;4941231;28;20604;-72
2024/03/24 08:28:00;;;;;;;;;;;;;;;-1.70;75.19;94287.97;4942796;29;20487;-71
2024/03/24 08:30:25;;;;;;;;;;;;;;;-1.88;74.54;94291.25;4943040;28;19953;-71
2024/03/24 08:32:50;;;;;;;;;;;;;;;-1.50;74.40;94283.63;4941247;28;19961;-72
2024/03/24 08:35:16;;;;;;;;;;;;;;;-1.87;74.29;94298.09;4940522;28;19934;-72
2024/03/24 08:37:41;;;;;;;;;;;;;;;-2.22;74.62;94304.56;4939828;28;19934;-73
2024/03/24 08:40:07;;;;;;;;;;;;;;;-2.37;78.95;94291.88;4944423;28;20405;-73
2024/03/24 08:42:32;;;;;;;;;;;;;;;-2.21;76.87;94300.19;4941243;28;20058;-73
2024/03/24 08:44:58;;;;;;;;;;;;;;;-2.12;75.38;94286.34;4941200;28;20011;-72
2024/03/24 08:47:24;;;;;;;;;;;;;;;-1.82;76.52;94289.88;4940785;28;19931;-72
2024/03/24 08:49:49;;;;;;;;;;;;;;;-1.69;76.17;94288.81;4941274;28;19937;-72
2024/03/24 08:52:14;;;;;;;;;;;;;;;-1.83;76.48;94290.84;4941042;29;20087;-72
2024/03/24 08:54:40;;;;;;;;;;;;;;;-2.09;77.25;94296.53;4940321;28;19926;-71
2024/03/24 08:57:05;;;;;;;;;;;;;;;-2.56;80.30;94331.72;4941165;29;20489;-72
2024/03/24 08:59:30;;;;;;;;;;;;;;;-3.66;82.15;94312.78;4940942;28;20512;-71
2024/03/24 09:01:55;;;;;;;;;;;;;;;-3.95;84.59;94308.06;4940426;28;19926;-71
2024/03/24 09:04:22;;;;;;;;;;;;;;;-4.00;85.13;94318.84;4940052;28;20020;-73
2024/03/24 09:06:47;;;;;;;;;;;;;;;-4.09;86.92;94325.59;4940821;28;19926;-73
2024/03/24 09:09:12;;;;;;;;;;;;;;;-3.89;87.05;94332.78;4939372;29;19926;-73
2024/03/24 09:11:38;;;;;;;;;;;;;;;-3.99;85.64;94327.47;4937655;28;19930;-73
2024/03/24 09:14:03;;;;;;;;;;;;;;;-4.48;87.04;94319.91;4937526;28;19994;-71
2024/03/24 09:16:28;;;;;;;;;;;;;;;-4.57;88.85;94335.25;4940545;28;19931;-73
2024/03/24 09:18:53;;;;;;;;;;;;;;;-4.24;88.32;94326.78;4940648;28;19929;-71
2024/03/24 09:21:18;;;;;;;;;;;;;;;-4.36;89.07;94323.34;4940294;29;19926;-73
2024/03/24 09:23:44;;;;;;;;;;;;;;;-4.69;90.67;94313.63;4939636;28;19926;-73
2024/03/24 09:26:09;;;;;;;;;;;;;;;-4.58;91.81;94325.78;4939135;28;20080;-73
2024/03/24 09:28:35;;;;;;;;;;;;;;;-4.88;92.75;94334.97;4941145;28;19973;-71
2024/03/24 09:31:03;;;;;;;;;;;;;;;-4.61;92.31;94335.59;4940649;28;19926;-74
2024/03/24 09:33:28;;;;;;;;;;;;;;;-4.73;92.01;94324.34;4938400;28;19930;-73
2024/03/24 09:35:58;;;;;;;;;;;;;;;-5.14;94.04;94324.72;4939694;29;19985;-71
2024/03/24 09:38:24;;;;;;;;;;;;;;;-4.87;94.47;94323.63;4923509;28;19926;-73
2024/03/24 09:40:49;;;;;;;;;;;;;;;-4.95;94.68;94355.34;4938862;29;20418;-74
2024/03/24 09:43:14;;;;;;;;;;;;;;;-4.23;92.28;94323.22;4940110;28;19950;-72
2024/03/24 09:45:40;;;;;;;;;;;;;;;-4.43;92.28;94347.22;4957465;28;20491;-73
2024/03/24 09:48:06;;;;;;;;;;;;;;;-4.51;92.93;94333.13;4944549;28;19934;-73
2024/03/24 09:50:31;;;;;;;;;;;;;;;-4.51;92.86;94327.94;4943882;28;19931;-72
2024/03/24 09:52:56;;;;;;;;;;;;;;;-4.44;92.31;94326.53;4943424;29;19926;-74
2024/03/24 09:55:23;;;;;;;;;;;;;;;-4.61;93.51;94339.03;4942755;29;19985;-74
2024/03/24 09:57:48;;;;;;;;;;;;;;;-4.68;94.88;94330.06;4942907;28;20001;-73
2024/03/24 10:00:13;;;;;;;;;;;;;;;-4.58;94.52;94333.59;4942779;29;19922;-77
2024/03/24 10:02:39;;;;;;;;;;;;;;;-4.46;93.46;94344.00;4944126;28;19934;-74
2024/03/24 10:05:04;;;;;;;;;;;;;;;-4.33;93.04;94331.75;4943343;29;19927;-73
2024/03/24 10:07:30;;;;;;;;;;;;;;;-4.38;92.71;94339.03;4943643;28;20017;-73
2024/03/24 10:09:55;;;;;;;;;;;;;;;-4.11;92.43;94343.06;4944116;28;19933;-75
2024/03/24 10:12:20;;;;;;;;;;;;;;;-4.04;91.28;94335.66;4943468;28;20042;-75
2024/03/24 10:14:45;;;;;;;;;;;;;;;-3.94;92.19;94343.56;4942343;28;19987;-74
2024/03/24 10:17:19;;;;;;;;;;;;;;;-3.59;90.05;94332.16;4940891;29;19926;-75
2024/03/24 10:19:48;;;;;;;;;;;;;;;-3.89;90.67;94345.78;4917152;29;20087;-74
2024/03/24 10:22:13;;;;;;;;;;;;;;;-4.10;91.12;94336.13;4923642;29;20154;-77
2024/03/24 10:24:42;;;;;;;;;;;;;;;-4.17;91.45;94333.97;4928344;29;20421;-74
2024/03/24 10:27:08;;;;;;;;;;;;;;;-4.11;89.93;94343.06;4935734;28;19927;-75
2024/03/24 10:29:33;;;;;;;;;;;;;;;-3.96;89.73;94345.44;4942176;28;19922;-75
2024/03/24 10:31:58;;;;;;;;;;;;;;;-3.82;89.88;94326.16;4942914;28;19927;-75
2024/03/24 10:34:23;;;;;;;;;;;;;;;-3.69;89.27;94320.81;4940753;29;20473;-78
2024/03/24 10:36:49;;;;;;;;;;;;;;;-3.70;88.62;94340.78;4943550;29;19962;-75
2024/03/24 10:39:14;;;;;;;;;;;;;;;-3.57;87.71;94356.25;4942706;28;20433;-75
2024/03/24 10:41:39;;;;;;;;;;;;;;;-3.04;86.97;94325.22;4943246;28;19926;-77
2024/03/24 10:44:04;;;;;;;;;;;;;;;-3.32;86.47;94327.47;4943377;29;19927;-74
2024/03/24 10:46:30;;;;;;;;;;;;;;;-3.25;86.55;94325.19;4956878;28;19934;-74
2024/03/24 10:48:55;;;;;;;;;;;;;;;-3.34;85.80;94314.56;4943389;29;20535;-73
2024/03/24 10:51:21;;;;;;;;;;;;;;;-3.06;86.60;94319.31;4940977;29;19933;-75
2024/03/24 10:53:46;;;;;;;;;;;;;;;-2.83;85.17;94320.03;4941278;29;20037;-76
2024/03/24 10:56:11;;;;;;;;;;;;;;;-3.14;84.64;94349.41;4939989;29;19922;-77
2024/03/24 10:58:36;;;;;;;;;;;;;;;-3.06;84.40;94327.94;4941008;29;20591;-76
2024/03/24 11:01:02;;;;;;;;;;;;;;;-2.75;83.54;94317.59;4941993;29;20557;-76
2024/03/24 11:03:27;;;;;;;;;;;;;;;-3.07;81.78;94320.25;4942229;28;20009;-76
2024/03/24 11:05:55;;;;;;;;;;;;;;;-2.81;82.30;94322.50;4941264;29;20360;-77
2024/03/24 11:08:20;;;;;;;;;;;;;;;-2.58;81.34;94314.56;4942470;28;19977;-76
2024/03/24 11:10:46;;;;;;;;;;;;;;;-2.51;81.17;94302.66;4941653;28;20024;-76
2024/03/24 11:13:12;;;;;;;;;;;;;;;-2.05;80.28;94320.56;4939937;29;19922;-77
2024/03/24 11:15:40;;;;;;;;;;;;;;;-2.05;78.59;94315.34;4940839;29;19926;-75
2024/03/24 11:18:10;;;;;;;;;;;;;;;-2.09;78.54;94314.78;4942032;28;20308;-77
2024/03/24 11:20:36;;;;;;;;;;;;;;;-1.77;77.09;94311.19;4940620;29;19922;-75
2024/03/24 11:23:01;;;;;;;;;;;;;;;-1.95;77.17;94286.69;4941968;28;19926;-76
2024/03/24 11:25:33;;;;;;;;;;;;;;;-1.63;76.94;94309.16;4941949;28;19930;-76
2024/03/24 11:27:59;;;;;;;;;;;;;;;-1.74;75.78;94308.31;4939172;28;20010;-78
2024/03/24 11:30:28;;;;;;;;;;;;;;;-2.12;76.68;94312.44;4942028;28;20392;-76
2024/03/24 11:32:54;;;;;;;;;;;;;;;-2.55;79.61;94322.13;4939390;28;19923;-74
2024/03/24 11:35:26;;;;;;;;;;;;;;;-2.42;80.76;94304.50;4925303;29;20435;-74
2024/03/24 11:37:52;;;;;;;;;;;;;;;-1.83;80.16;94295.25;4933730;29;20619;-74
2024/03/24 11:40:21;;;;;;;;;;;;;;;-1.64;76.82;94303.09;4922641;29;19923;-74
2024/03/24 11:42:46;;;;;;;;;;;;;;;-0.78;77.28;94282.53;4933947;28;20470;-75
2024/03/24 11:45:27;;;;;;;;;;;;;;;-0.99;73.96;94286.09;4939780;28;19941;-73
2024/03/24 11:48:12;;;;;;;;;;;;;;;-0.29;72.13;94260.66;4941832;28;20538;-77
2024/03/24 11:50:37;;;;;;;;;;;;;;;0.06;69.12;94268.75;4941327;28;19926;-75
2024/03/24 11:53:03;;;;;;;;;;;;;;;-0.31;67.38;94267.81;4940931;29;20360;-74
2024/03/24 11:55:30;;;;;;;;;;;;;;;-0.54;72.29;94269.97;4939651;28;19981;-73
2024/03/24 11:57:55;;;;;;;;;;;;;;;-1.05;72.65;94265.75;4954877;28;19930;-73
2024/03/24 12:00:22;;;;;;;;;;;;;;;-1.52;78.60;94269.06;4938066;29;19991;-73
2024/03/24 12:02:47;;;;;;;;;;;;;;;-2.72;81.97;94272.22;4954181;28;20621;-73
2024/03/24 12:05:12;;;;;;;;;;;;;;;-2.97;84.01;94287.31;4955455;28;19990;-72
2024/03/24 12:07:37;;;;;;;;;;;;;;;-3.23;87.15;94292.84;4940689;28;19930;-72
2024/03/24 12:10:03;;;;;;;;;;;;;;;-3.01;89.75;94278.09;4955485;28;19964;-72
2024/03/24 12:12:28;;;;;;;;;;;;;;;-2.25;86.19;94284.81;4941940;28;19926;-72
2024/03/24 12:14:53;;;;;;;;;;;;;;;-1.36;86.18;94263.28;4941763;28;20715;-72
2024/03/24 12:17:22;;;;;;;;;;;;;;;-0.57;83.97;94260.63;4940776;29;20120;-72
2024/03/24 12:19:47;;;;;;;;;;;;;;;-0.73;79.67;94246.34;4938861;29;19929;-72
2024/03/24 12:22:12;;;;;;;;;;;;;;;-0.75;79.73;94260.53;4942087;28;19927;-72
2024/03/24 12:24:37;;;;;;;;;;;;;;;-1.24;77.49;94250.91;4942215;28;19923;-73
2024/03/24 12:27:03;;;;;;;;;;;;;;;-1.91;79.63;94267.19;4939408;29;19927;-71
2024/03/24 12:29:28;;;;;;;;;;;;;;;-2.05;83.80;94258.78;4941169;28;20017;-72
2024/03/24 12:31:53;;;;;;;;;;;;;;;-1.63;82.98;94262.19;4941913;29;20375;-72
2024/03/24 12:34:19;;;;;;;;;;;;;;;-1.95;80.70;94252.75;4941037;28;20052;-72
2024/03/24 12:36:44;;;;;;;;;;;;;;;-1.65;76.89;94244.03;4940215;28;19925;-72
2024/03/24 12:39:13;;;;;;;;;;;;;;;-1.22;75.74;94234.13;4941363;28;19929;-72